createdAt,value
2018-04-17T00:01:00.855Z,10.20
2018-04-17T00:02:06.366Z,12.50
2018-04-17T00:03:11.875Z,14.00
2018-04-17T00:04:17.388Z,12.90
2018-04-17T00:05:22.897Z,10.50
2018-04-17T00:06:28.410Z,11.00
2018-04-17T00:07:33.922Z,11.00
2018-04-17T00:08:39.440Z,11.30
2018-04-17T00:09:44.954Z,11.40
2018-04-17T00:10:50.457Z,13.20
2018-04-17T00:11:55.970Z,11.50
2018-04-17T00:13:01.481Z,11.80
2018-04-17T00:14:06.994Z,13.10
2018-04-17T00:15:12.506Z,14.40
2018-04-17T00:16:18.029Z,11.60
2018-04-17T00:17:23.529Z,12.80
2018-04-17T00:18:29.042Z,13.60
2018-04-17T00:19:34.557Z,13.40
2018-04-17T00:20:40.077Z,11.10
2018-04-17T00:21:45.577Z,14.10
2018-04-17T00:22:51.087Z,9.80
2018-04-17T00:23:56.695Z,12.00
2018-04-17T00:25:02.114Z,12.20
2018-04-17T00:26:07.620Z,10.70
2018-04-17T00:27:13.133Z,14.80
2018-04-17T00:28:18.645Z,10.70
2018-04-17T00:29:24.177Z,14.00
2018-04-17T00:30:29.676Z,12.10
2018-04-17T00:31:35.198Z,12.80
2018-04-17T00:32:40.691Z,11.50
2018-04-17T00:33:46.207Z,12.30
2018-04-17T00:34:51.712Z,13.50
2018-04-17T00:35:57.223Z,11.30
2018-04-17T00:37:02.738Z,13.30
2018-04-17T00:38:08.246Z,13.70
2018-04-17T00:39:13.763Z,11.60
2018-04-17T00:40:19.272Z,18.30
2018-04-17T00:41:24.787Z,12.50
2018-04-17T00:42:30.296Z,14.20
2018-04-17T00:43:35.805Z,13.70
2018-04-17T00:44:41.316Z,12.70
2018-04-17T00:45:46.827Z,11.50
2018-04-17T00:46:52.349Z,10.70
2018-04-17T00:47:57.851Z,11.50
2018-04-17T00:49:03.365Z,14.30
2018-04-17T00:50:08.877Z,15.30
2018-04-17T00:51:14.388Z,13.20
2018-04-17T00:52:19.902Z,12.60
2018-04-17T00:53:25.415Z,11.70
2018-04-17T00:54:30.929Z,10.80
2018-04-17T00:55:36.436Z,12.30
2018-04-17T00:56:41.949Z,12.50
2018-04-17T00:57:47.482Z,14.10
2018-04-17T00:58:52.967Z,11.30
2018-04-17T00:59:58.484Z,13.50
2018-04-17T01:01:03.993Z,12.90
2018-04-17T01:02:09.507Z,14.30
2018-04-17T01:03:15.018Z,10.50
2018-04-17T01:04:20.527Z,12.20
2018-04-17T01:05:26.056Z,11.60
2018-04-17T01:06:31.548Z,10.90
2018-04-17T01:07:37.069Z,10.60
2018-04-17T01:08:42.584Z,14.30
2018-04-17T01:09:48.081Z,12.80
2018-04-17T01:10:53.599Z,11.60
2018-04-17T01:11:59.103Z,12.80
2018-04-17T01:13:04.618Z,14.50
2018-04-17T01:14:10.132Z,15.50
2018-04-17T01:15:15.648Z,12.70
2018-04-17T01:16:21.148Z,14.50
2018-04-17T01:17:26.660Z,14.70
2018-04-17T01:18:32.175Z,10.80
2018-04-17T01:19:37.685Z,14.00
2018-04-17T01:20:43.197Z,12.90
2018-04-17T01:21:48.709Z,10.50
2018-04-17T01:22:54.221Z,15.30
2018-04-17T01:23:59.728Z,12.10
2018-04-17T01:25:05.249Z,11.90
2018-04-17T01:26:10.754Z,16.40
2018-04-17T01:27:16.264Z,11.80
2018-04-17T01:28:21.776Z,12.00
2018-04-17T01:29:27.293Z,15.60
2018-04-17T01:30:32.793Z,13.70
2018-04-17T01:31:38.304Z,12.40
2018-04-17T01:32:43.818Z,13.30
2018-04-17T01:33:49.328Z,12.10
2018-04-17T01:34:54.842Z,14.50
2018-04-17T01:36:00.357Z,12.90
2018-04-17T01:37:05.865Z,13.20
2018-04-17T01:38:11.380Z,11.00
2018-04-17T01:39:16.884Z,12.50
2018-04-17T01:40:22.405Z,13.20
2018-04-17T01:41:27.907Z,12.20
2018-04-17T01:42:33.496Z,14.10
2018-04-17T01:43:38.928Z,12.70
2018-04-17T01:44:44.438Z,13.30
2018-04-17T01:45:49.955Z,15.40
2018-04-17T01:46:55.459Z,13.10
2018-04-17T01:48:00.977Z,13.10
2018-04-17T01:49:06.489Z,11.70
2018-04-17T01:50:11.995Z,13.40
2018-04-17T01:51:17.508Z,13.50
2018-04-17T01:52:23.013Z,13.80
2018-04-17T01:53:28.527Z,15.90
2018-04-17T01:54:34.038Z,13.40
2018-04-17T01:55:39.550Z,13.50
2018-04-17T01:56:45.061Z,12.70
2018-04-17T01:57:50.568Z,12.60
2018-04-17T01:58:56.080Z,16.50
2018-04-17T02:00:01.602Z,12.60
2018-04-17T02:01:07.108Z,16.10
2018-04-17T02:02:12.615Z,14.80
2018-04-17T02:03:18.144Z,13.30
2018-04-17T02:04:23.637Z,14.30
2018-04-17T02:05:29.148Z,13.20
2018-04-17T02:06:34.662Z,12.80
2018-04-17T02:07:40.172Z,12.90
2018-04-17T02:08:45.682Z,15.40
2018-04-17T02:09:51.193Z,11.50
2018-04-17T02:10:56.701Z,14.00
2018-04-17T02:12:02.210Z,12.60
2018-04-17T02:13:07.727Z,13.70
2018-04-17T02:14:13.239Z,12.20
2018-04-17T02:15:18.763Z,14.40
2018-04-17T02:16:24.261Z,14.40
2018-04-17T02:17:29.767Z,13.50
2018-04-17T02:18:35.283Z,11.30
2018-04-17T02:19:40.790Z,12.70
2018-04-17T02:20:46.301Z,12.30
2018-04-17T02:21:51.815Z,13.20
2018-04-17T02:22:57.323Z,12.20
2018-04-17T02:24:02.834Z,12.40
2018-04-17T02:25:08.342Z,12.40
2018-04-17T02:26:13.861Z,11.80
2018-04-17T02:27:19.367Z,13.30
2018-04-17T02:28:24.874Z,15.90
2018-04-17T02:29:30.392Z,13.10
2018-04-17T02:30:35.907Z,11.50
2018-04-17T02:31:41.411Z,14.80
2018-04-17T02:32:46.925Z,14.70
2018-04-17T02:33:52.428Z,16.20
2018-04-17T02:34:57.940Z,12.90
2018-04-17T02:36:03.453Z,11.60
2018-04-17T02:37:08.962Z,14.10
2018-04-17T02:38:14.488Z,12.80
2018-04-17T02:39:19.990Z,13.70
2018-04-17T02:40:25.495Z,12.30
2018-04-17T02:41:31.007Z,12.80
2018-04-17T02:42:36.518Z,11.80
2018-04-17T02:43:42.038Z,12.50
2018-04-17T02:44:47.538Z,12.40
2018-04-17T02:45:53.048Z,13.10
2018-04-17T02:46:58.559Z,13.20
2018-04-17T02:48:04.075Z,14.40
2018-04-17T02:49:09.580Z,14.80
2018-04-17T02:50:15.090Z,12.90
2018-04-17T02:51:20.601Z,12.10
2018-04-17T02:52:26.114Z,13.20
2018-04-17T02:53:31.623Z,13.80
2018-04-17T02:54:37.132Z,11.30
2018-04-17T02:55:42.644Z,13.20
2018-04-17T02:56:48.154Z,11.40
2018-04-17T02:57:53.674Z,11.60
2018-04-17T02:58:59.176Z,14.60
2018-04-17T03:00:04.691Z,13.30
2018-04-17T03:01:10.203Z,17.00
2018-04-17T03:02:15.710Z,14.00
2018-04-17T03:03:21.245Z,15.20
2018-04-17T03:04:26.773Z,15.30
2018-04-17T03:05:32.240Z,17.20
2018-04-17T03:06:37.752Z,16.30
2018-04-17T03:07:43.266Z,17.60
2018-04-17T03:08:48.769Z,15.90
2018-04-17T03:09:54.280Z,14.20
2018-04-17T03:10:59.797Z,15.80
2018-04-17T03:12:05.300Z,12.40
2018-04-17T03:13:10.813Z,14.30
2018-04-17T03:14:16.325Z,13.50
2018-04-17T03:15:21.837Z,11.20
2018-04-17T03:16:27.344Z,15.00
2018-04-17T03:17:32.866Z,15.60
2018-04-17T03:18:38.364Z,16.70
2018-04-17T03:19:43.882Z,20.70
2018-04-17T03:20:49.387Z,13.30
2018-04-17T03:21:54.909Z,14.70
2018-04-17T03:23:00.408Z,14.00
2018-04-17T03:24:05.919Z,14.90
2018-04-17T03:25:11.429Z,14.70
2018-04-17T03:26:16.941Z,13.50
2018-04-17T03:27:22.448Z,13.00
2018-04-17T03:28:27.963Z,15.10
2018-04-17T03:29:33.482Z,15.00
2018-04-17T03:30:38.982Z,17.00
2018-04-17T03:31:44.497Z,22.50
2018-04-17T03:32:50.007Z,18.80
2018-04-17T03:33:55.513Z,17.50
2018-04-17T03:35:01.023Z,15.20
2018-04-17T03:36:06.551Z,15.30
2018-04-17T03:37:12.044Z,14.20
2018-04-17T03:38:17.555Z,16.90
2018-04-17T03:39:23.067Z,14.10
2018-04-17T03:40:28.590Z,16.10
2018-04-17T03:41:34.091Z,17.40
2018-04-17T03:42:39.599Z,17.80
2018-04-17T03:43:45.153Z,17.00
2018-04-17T03:44:50.638Z,16.50
2018-04-17T03:45:56.129Z,16.00
2018-04-17T03:47:01.641Z,17.50
2018-04-17T03:48:07.151Z,35.80
2018-04-17T03:49:12.668Z,19.40
2018-04-17T03:50:18.174Z,14.80
2018-04-17T03:51:23.686Z,15.90
2018-04-17T03:52:29.193Z,12.70
2018-04-17T03:53:34.705Z,9.50
2018-04-17T03:54:40.215Z,12.30
2018-04-17T03:55:45.727Z,11.20
2018-04-17T03:56:51.237Z,11.20
2018-04-17T03:57:56.745Z,22.20
2018-04-17T03:59:02.256Z,29.30
2018-04-17T04:00:07.764Z,13.90
2018-04-17T04:01:13.298Z,11.80
2018-04-17T04:02:18.788Z,13.60
2018-04-17T04:03:24.295Z,10.80
2018-04-17T04:04:29.807Z,13.30
2018-04-17T04:05:35.318Z,13.00
2018-04-17T04:06:40.825Z,14.00
2018-04-17T04:07:46.341Z,13.50
2018-04-17T04:08:51.847Z,11.90
2018-04-17T04:09:57.358Z,14.90
2018-04-17T04:11:02.876Z,13.10
2018-04-17T04:12:08.379Z,15.70
2018-04-17T04:13:13.892Z,14.50
2018-04-17T04:14:19.404Z,11.20
2018-04-17T04:15:24.917Z,14.50
2018-04-17T04:16:30.423Z,16.90
2018-04-17T04:17:35.939Z,14.50
2018-04-17T04:18:41.448Z,17.10
2018-04-17T04:19:46.958Z,15.80
2018-04-17T04:20:52.463Z,14.00
2018-04-17T04:21:57.978Z,16.40
2018-04-17T04:23:03.485Z,17.30
2018-04-17T04:24:09.012Z,15.20
2018-04-17T04:25:14.507Z,17.50
2018-04-17T04:26:20.018Z,13.50
2018-04-17T04:27:25.538Z,15.80
2018-04-17T04:28:31.041Z,15.90
2018-04-17T04:29:36.556Z,13.30
2018-04-17T04:30:42.056Z,13.40
2018-04-17T04:31:47.577Z,16.10
2018-04-17T04:32:53.078Z,17.30
2018-04-17T04:33:58.587Z,14.10
2018-04-17T04:35:04.122Z,14.50
2018-04-17T04:36:09.607Z,12.90
2018-04-17T04:37:15.131Z,14.60
2018-04-17T04:38:20.632Z,15.60
2018-04-17T04:39:26.161Z,15.70
2018-04-17T04:40:31.654Z,17.20
2018-04-17T04:41:37.165Z,14.20
2018-04-17T04:42:42.669Z,19.20
2018-04-17T04:43:48.188Z,15.90
2018-04-17T04:44:53.693Z,13.70
2018-04-17T04:45:59.205Z,12.90
2018-04-17T04:47:04.719Z,15.20
2018-04-17T04:48:10.223Z,13.70
2018-04-17T04:49:15.730Z,15.20
2018-04-17T04:50:21.249Z,18.10
2018-04-17T04:51:26.757Z,14.00
2018-04-17T04:52:32.264Z,14.50
2018-04-17T04:53:37.773Z,15.10
2018-04-17T04:54:43.290Z,13.30
2018-04-17T04:55:48.806Z,17.80
2018-04-17T04:56:54.304Z,12.10
2018-04-17T04:57:59.815Z,16.00
2018-04-17T04:59:05.330Z,16.70
2018-04-17T05:00:10.843Z,14.20
2018-04-17T05:01:16.355Z,17.40
2018-04-17T05:02:21.863Z,17.50
2018-04-17T05:03:27.365Z,14.00
2018-04-17T05:04:32.886Z,16.30
2018-04-17T05:05:38.389Z,17.20
2018-04-17T05:06:43.900Z,14.50
2018-04-17T05:07:49.409Z,11.00
2018-04-17T05:08:54.922Z,16.10
2018-04-17T05:10:00.427Z,13.90
2018-04-17T05:11:05.938Z,15.30
2018-04-17T05:12:11.452Z,14.90
2018-04-17T05:13:16.969Z,15.90
2018-04-17T05:14:22.477Z,17.40
2018-04-17T05:15:27.978Z,18.30
2018-04-17T05:16:33.488Z,13.10
2018-04-17T05:17:38.998Z,17.90
2018-04-17T05:18:44.512Z,16.30
2018-04-17T05:19:50.023Z,14.90
2018-04-17T05:20:55.536Z,15.20
2018-04-17T05:22:01.041Z,15.30
2018-04-17T05:23:06.552Z,17.00
2018-04-17T05:24:12.072Z,17.60
2018-04-17T05:25:17.580Z,17.40
2018-04-17T05:26:23.094Z,16.30
2018-04-17T05:27:28.592Z,16.90
2018-04-17T05:28:34.106Z,16.00
2018-04-17T05:29:39.618Z,13.50
2018-04-17T05:30:45.130Z,15.60
2018-04-17T05:31:50.638Z,14.40
2018-04-17T05:32:56.149Z,18.30
2018-04-17T05:34:01.670Z,16.50
2018-04-17T05:35:07.165Z,16.80
2018-04-17T05:36:12.678Z,16.00
2018-04-17T05:37:18.190Z,15.30
2018-04-17T05:38:23.707Z,15.80
2018-04-17T05:39:29.210Z,17.30
2018-04-17T05:40:34.773Z,15.50
2018-04-17T05:41:40.229Z,18.70
2018-04-17T05:42:45.738Z,16.20
2018-04-17T05:43:51.256Z,17.40
2018-04-17T05:44:56.762Z,20.20
2018-04-17T05:46:02.278Z,19.40
2018-04-17T05:47:07.783Z,20.10
2018-04-17T05:48:13.299Z,17.10
2018-04-17T05:49:18.809Z,19.20
2018-04-17T05:50:24.330Z,18.70
2018-04-17T05:51:29.826Z,20.30
2018-04-17T05:52:35.337Z,20.20
2018-04-17T05:53:40.858Z,21.60
2018-04-17T05:54:46.361Z,23.60
2018-04-17T05:55:51.899Z,20.80
2018-04-17T05:56:57.379Z,17.70
2018-04-17T05:58:02.898Z,17.80
2018-04-17T05:59:08.400Z,20.70
2018-04-17T06:00:13.923Z,20.70
2018-04-17T06:01:19.426Z,19.00
2018-04-17T06:02:24.929Z,19.00
2018-04-17T06:03:30.448Z,20.40
2018-04-17T06:04:35.954Z,19.30
2018-04-17T06:05:41.468Z,19.40
2018-04-17T06:06:46.979Z,18.40
2018-04-17T06:07:52.491Z,20.90
2018-04-17T06:08:57.997Z,20.50
2018-04-17T06:10:03.508Z,21.20
2018-04-17T06:11:09.024Z,19.70
2018-04-17T06:12:14.526Z,21.40
2018-04-17T06:13:20.040Z,19.80
2018-04-17T06:14:25.552Z,22.00
2018-04-17T06:15:31.060Z,21.00
2018-04-17T06:16:36.575Z,21.30
2018-04-17T06:17:42.088Z,24.10
2018-04-17T06:18:47.608Z,22.60
2018-04-17T06:19:53.110Z,18.80
2018-04-17T06:20:58.615Z,21.90
2018-04-17T06:22:04.128Z,19.70
2018-04-17T06:23:09.640Z,20.90
2018-04-17T06:24:15.151Z,20.80
2018-04-17T06:25:20.662Z,22.50
2018-04-17T06:26:26.179Z,22.70
2018-04-17T06:27:31.689Z,23.00
2018-04-17T06:28:37.200Z,23.10
2018-04-17T06:29:42.708Z,20.50
2018-04-17T06:30:48.215Z,21.60
2018-04-17T06:31:53.732Z,19.20
2018-04-17T06:32:59.251Z,22.80
2018-04-17T06:34:04.754Z,19.70
2018-04-17T06:35:10.274Z,22.30
2018-04-17T06:36:15.773Z,21.50
2018-04-17T06:37:21.282Z,23.90
2018-04-17T06:38:26.796Z,21.90
2018-04-17T06:39:32.318Z,24.90
2018-04-17T06:40:37.822Z,20.50
2018-04-17T06:41:43.374Z,20.70
2018-04-17T06:42:48.845Z,24.20
2018-04-17T06:43:54.356Z,24.60
2018-04-17T06:44:59.864Z,21.10
2018-04-17T06:46:05.385Z,21.30
2018-04-17T06:47:10.907Z,23.30
2018-04-17T06:48:16.399Z,24.60
2018-04-17T06:49:21.909Z,21.30
2018-04-17T06:50:27.421Z,21.00
2018-04-17T06:51:32.935Z,19.10
2018-04-17T06:52:38.525Z,20.10
2018-04-17T06:53:43.971Z,18.30
2018-04-17T06:54:49.478Z,21.40
2018-04-17T06:55:54.994Z,20.00
2018-04-17T06:57:00.496Z,19.50
2018-04-17T06:58:06.073Z,22.40
2018-04-17T06:59:11.579Z,19.80
2018-04-17T07:00:17.036Z,21.10
2018-04-17T07:01:22.549Z,22.80
2018-04-17T07:02:28.059Z,21.00
2018-04-17T07:03:33.569Z,20.20
2018-04-17T07:04:39.086Z,19.90
2018-04-17T07:05:44.598Z,24.30
2018-04-17T07:06:50.102Z,23.30
2018-04-17T07:07:55.737Z,23.00
2018-04-17T07:09:01.149Z,21.00
2018-04-17T07:10:06.647Z,21.40
2018-04-17T07:11:12.159Z,22.50
2018-04-17T07:12:17.695Z,22.20
2018-04-17T07:13:23.188Z,20.50
2018-04-17T07:14:28.693Z,22.10
2018-04-17T07:15:34.208Z,19.80
2018-04-17T07:16:39.721Z,22.40
2018-04-17T07:17:45.241Z,20.60
2018-04-17T07:18:50.752Z,20.20
2018-04-17T07:19:56.259Z,20.90
2018-04-17T07:21:01.769Z,21.60
2018-04-17T07:22:07.282Z,18.70
2018-04-17T07:23:12.790Z,20.90
2018-04-17T07:24:18.310Z,21.20
2018-04-17T07:25:23.818Z,20.90
2018-04-17T07:26:29.332Z,20.90
2018-04-17T07:27:34.843Z,23.20
2018-04-17T07:28:40.359Z,20.70
2018-04-17T07:29:45.867Z,20.60
2018-04-17T07:30:51.380Z,21.00
2018-04-17T07:31:56.959Z,21.70
2018-04-17T07:33:02.408Z,20.60
2018-04-17T07:34:07.920Z,19.10
2018-04-17T07:35:13.437Z,23.80
2018-04-17T07:36:18.959Z,21.50
2018-04-17T07:37:24.460Z,19.90
2018-04-17T07:38:29.981Z,18.20
2018-04-17T07:39:35.485Z,18.80
2018-04-17T07:40:41.002Z,22.50
2018-04-17T07:41:46.516Z,59.30
2018-04-17T07:42:52.043Z,28.00
2018-04-17T07:43:57.543Z,21.70
2018-04-17T07:45:03.057Z,21.40
2018-04-17T07:46:08.567Z,21.40
2018-04-17T07:47:14.092Z,21.70
2018-04-17T07:48:19.606Z,21.10
2018-04-17T07:49:25.113Z,19.80
2018-04-17T07:50:30.627Z,23.10
2018-04-17T07:51:36.147Z,19.00
2018-04-17T07:52:41.662Z,20.80
2018-04-17T07:53:47.164Z,17.50
2018-04-17T07:54:52.680Z,18.80
2018-04-17T07:55:58.197Z,19.90
2018-04-17T07:57:03.707Z,20.20
2018-04-17T07:58:09.230Z,17.90
2018-04-17T07:59:14.747Z,16.60
2018-04-17T08:00:20.267Z,19.10
2018-04-17T08:01:25.876Z,18.30
2018-04-17T08:02:31.283Z,19.20
2018-04-17T08:03:36.799Z,16.20
2018-04-17T08:04:42.351Z,17.00
2018-04-17T08:05:47.834Z,20.10
2018-04-17T08:06:53.342Z,16.80
2018-04-17T08:07:58.850Z,14.90
2018-04-17T08:09:04.375Z,14.80
2018-04-17T08:10:09.885Z,15.10
2018-04-17T08:11:15.407Z,14.80
2018-04-17T08:12:20.926Z,14.10
2018-04-17T08:13:26.429Z,14.10
2018-04-17T08:14:31.940Z,14.50
2018-04-17T08:15:37.452Z,15.70
2018-04-17T08:16:42.965Z,13.70
2018-04-17T08:17:48.486Z,17.00
2018-04-17T08:18:54.007Z,17.10
2018-04-17T08:19:59.518Z,12.70
2018-04-17T08:21:05.034Z,13.10
2018-04-17T08:22:10.541Z,15.60
2018-04-17T08:23:16.057Z,14.00
2018-04-17T08:24:21.572Z,16.40
2018-04-17T08:25:27.110Z,18.00
2018-04-17T08:26:32.624Z,14.70
2018-04-17T08:27:38.123Z,17.40
2018-04-17T08:28:43.634Z,14.00
2018-04-17T08:29:49.148Z,16.20
2018-04-17T08:30:54.669Z,18.30
2018-04-17T08:32:00.180Z,16.20
2018-04-17T08:33:05.694Z,18.30
2018-04-17T08:34:11.218Z,18.60
2018-04-17T08:35:16.725Z,20.90
2018-04-17T08:36:22.244Z,17.30
2018-04-17T08:37:27.764Z,17.10
2018-04-17T08:38:33.275Z,16.70
2018-04-17T08:39:38.792Z,16.30
2018-04-17T08:40:44.310Z,16.10
2018-04-17T08:41:49.820Z,17.50
2018-04-17T08:42:55.340Z,17.70
2018-04-17T08:44:00.850Z,18.00
2018-04-17T08:45:06.375Z,20.70
2018-04-17T08:46:11.897Z,20.10
2018-04-17T08:47:17.398Z,18.10
2018-04-17T08:48:22.917Z,17.20
2018-04-17T08:49:28.429Z,18.40
2018-04-17T08:50:33.950Z,18.00
2018-04-17T08:51:39.465Z,19.40
2018-04-17T08:52:44.987Z,20.20
2018-04-17T08:53:50.548Z,18.50
2018-04-17T08:54:56.014Z,20.00
2018-04-17T08:56:01.529Z,16.60
2018-04-17T08:57:07.045Z,19.10
2018-04-17T08:58:12.561Z,17.70
2018-04-17T08:59:18.074Z,19.00
2018-04-17T09:00:23.595Z,19.10
2018-04-17T09:01:29.122Z,17.70
2018-04-17T09:02:34.634Z,19.50
2018-04-17T09:03:40.148Z,19.70
2018-04-17T09:04:45.659Z,18.80
2018-04-17T09:05:51.172Z,18.00
2018-04-17T09:06:56.689Z,15.60
2018-04-17T09:08:02.208Z,15.80
2018-04-17T09:09:07.725Z,16.00
2018-04-17T09:10:13.240Z,14.90
2018-04-17T09:11:18.754Z,16.10
2018-04-17T09:12:24.270Z,13.80
2018-04-17T09:13:29.847Z,16.20
2018-04-17T09:14:35.321Z,19.00
2018-04-17T09:15:40.890Z,14.20
2018-04-17T09:16:46.339Z,17.90
2018-04-17T09:17:51.854Z,16.90
2018-04-17T09:18:57.369Z,17.60
2018-04-17T09:20:02.887Z,14.50
2018-04-17T09:21:08.414Z,13.30
2018-04-17T09:22:13.925Z,17.20
2018-04-17T09:23:19.445Z,16.80
2018-04-17T09:24:24.970Z,14.40
2018-04-17T09:25:30.473Z,16.60
2018-04-17T09:26:35.994Z,14.20
2018-04-17T09:27:41.506Z,14.80
2018-04-17T09:28:47.019Z,16.60
2018-04-17T09:29:52.548Z,11.30
2018-04-17T09:30:58.054Z,13.20
2018-04-17T09:32:03.574Z,13.60
2018-04-17T09:33:09.151Z,13.30
2018-04-17T09:34:14.605Z,12.10
2018-04-17T09:35:20.120Z,13.30
2018-04-17T09:36:25.644Z,13.20
2018-04-17T09:37:31.156Z,13.90
2018-04-17T09:38:36.677Z,12.90
2018-04-17T09:39:42.189Z,13.40
2018-04-17T09:40:47.727Z,13.70
2018-04-17T09:41:53.223Z,13.30
2018-04-17T09:42:58.745Z,14.00
2018-04-17T09:44:04.267Z,14.10
2018-04-17T09:45:09.777Z,11.00
2018-04-17T09:46:15.296Z,13.10
2018-04-17T09:47:20.815Z,12.60
2018-04-17T09:48:26.334Z,13.60
2018-04-17T09:49:31.847Z,11.40
2018-04-17T09:50:37.412Z,10.80
2018-04-17T09:51:42.881Z,10.80
2018-04-17T09:52:48.404Z,10.60
2018-04-17T09:53:53.922Z,9.30
2018-04-17T09:54:59.433Z,13.70
2018-04-17T09:56:04.954Z,10.80
2018-04-17T09:57:10.472Z,10.00
2018-04-17T09:58:15.994Z,10.30
2018-04-17T09:59:21.520Z,9.80
2018-04-17T10:00:27.026Z,11.50
2018-04-17T10:01:32.543Z,13.70
2018-04-17T10:02:38.060Z,11.70
2018-04-17T10:03:43.580Z,12.80
2018-04-17T10:04:49.094Z,13.30
2018-04-17T10:05:54.615Z,14.70
2018-04-17T10:07:00.129Z,13.60
2018-04-17T10:08:05.652Z,17.50
2018-04-17T10:09:11.198Z,14.30
2018-04-17T10:10:16.685Z,15.20
2018-04-17T10:11:22.205Z,13.20
2018-04-17T10:12:27.722Z,14.50
2018-04-17T10:13:33.241Z,14.10
2018-04-17T10:14:38.759Z,11.70
2018-04-17T10:15:44.277Z,12.80
2018-04-17T10:16:49.794Z,13.60
2018-04-17T10:17:55.312Z,12.70
2018-04-17T10:19:00.827Z,14.50
2018-04-17T10:20:06.372Z,13.20
2018-04-17T10:21:11.970Z,11.40
2018-04-17T10:22:17.387Z,15.40
2018-04-17T10:23:22.901Z,12.80
2018-04-17T10:24:28.418Z,12.90
2018-04-17T10:25:33.941Z,12.00
2018-04-17T10:26:39.458Z,13.00
2018-04-17T10:27:44.973Z,13.20
2018-04-17T10:28:50.499Z,13.20
2018-04-17T10:29:56.013Z,15.00
2018-04-17T10:31:01.530Z,13.30
2018-04-17T10:32:07.051Z,13.20
2018-04-17T10:33:12.566Z,15.00
2018-04-17T10:34:18.085Z,11.60
2018-04-17T10:35:23.605Z,12.50
2018-04-17T10:36:29.119Z,13.90
2018-04-17T10:37:34.642Z,15.00
2018-04-17T10:38:40.156Z,13.60
2018-04-17T10:39:45.729Z,13.00
2018-04-17T10:40:51.198Z,11.40
2018-04-17T10:41:56.710Z,12.40
2018-04-17T10:43:02.231Z,14.10
2018-04-17T10:44:07.753Z,11.00
2018-04-17T10:45:13.283Z,11.50
2018-04-17T10:46:18.787Z,11.00
2018-04-17T10:47:24.309Z,10.10
2018-04-17T10:48:29.824Z,11.70
2018-04-17T10:49:35.352Z,12.00
2018-04-17T10:50:40.866Z,13.10
2018-04-17T10:51:46.381Z,11.00
2018-04-17T10:52:51.898Z,16.00
2018-04-17T10:53:57.418Z,11.70
2018-04-17T10:55:02.990Z,16.10
2018-04-17T10:56:08.465Z,14.30
2018-04-17T10:57:13.973Z,11.90
2018-04-17T10:58:19.500Z,13.60
2018-04-17T10:59:25.017Z,11.00
2018-04-17T11:00:30.551Z,13.50
2018-04-17T11:01:36.048Z,15.20
2018-04-17T11:02:41.580Z,12.10
2018-04-17T11:03:47.086Z,12.60
2018-04-17T11:04:52.657Z,13.40
2018-04-17T11:05:58.126Z,13.20
2018-04-17T11:07:03.647Z,12.40
2018-04-17T11:08:09.168Z,11.40
2018-04-17T11:09:14.676Z,17.30
2018-04-17T11:10:20.251Z,14.90
2018-04-17T11:11:25.722Z,14.30
2018-04-17T11:12:31.239Z,13.40
2018-04-17T11:13:36.756Z,11.40
2018-04-17T11:14:42.277Z,11.70
2018-04-17T11:15:47.809Z,11.90
2018-04-17T11:16:53.316Z,13.70
2018-04-17T11:17:58.835Z,10.60
2018-04-17T11:19:04.351Z,10.70
2018-04-17T11:20:09.868Z,11.20
2018-04-17T11:21:15.403Z,8.70
2018-04-17T11:22:20.907Z,11.70
2018-04-17T11:23:26.432Z,11.70
2018-04-17T11:24:31.946Z,10.90
2018-04-17T11:25:37.469Z,11.00
2018-04-17T11:26:42.987Z,14.00
2018-04-17T11:27:48.514Z,12.80
2018-04-17T11:28:54.026Z,11.20
2018-04-17T11:29:59.560Z,10.10
2018-04-17T11:31:05.068Z,10.60
2018-04-17T11:32:10.589Z,12.60
2018-04-17T11:33:16.103Z,10.10
2018-04-17T11:34:21.622Z,11.60
2018-04-17T11:35:27.138Z,10.20
2018-04-17T11:36:32.660Z,10.10
2018-04-17T11:37:38.179Z,11.50
2018-04-17T11:38:43.699Z,10.20
2018-04-17T11:39:49.220Z,11.80
2018-04-17T11:40:54.739Z,10.10
2018-04-17T11:42:00.275Z,12.50
2018-04-17T11:43:05.791Z,10.00
2018-04-17T11:44:11.303Z,10.30
2018-04-17T11:45:16.831Z,12.50
2018-04-17T11:46:22.351Z,9.30
2018-04-17T11:47:27.856Z,9.50
2018-04-17T11:48:33.402Z,13.70
2018-04-17T11:49:38.903Z,12.00
2018-04-17T11:50:44.426Z,11.00
2018-04-17T11:51:49.949Z,13.20
2018-04-17T11:52:55.466Z,12.00
2018-04-17T11:54:00.976Z,9.60
2018-04-17T11:55:06.499Z,10.40
2018-04-17T11:56:12.033Z,9.90
2018-04-17T11:57:17.539Z,12.00
2018-04-17T11:58:23.067Z,15.00
2018-04-17T11:59:28.577Z,10.90
2018-04-17T12:00:34.099Z,13.10
2018-04-17T12:01:39.641Z,8.20
2018-04-17T12:02:45.139Z,8.70
2018-04-17T12:03:50.656Z,8.90
2018-04-17T12:04:56.205Z,9.90
2018-04-17T12:06:01.713Z,9.50
2018-04-17T12:07:07.227Z,7.90
2018-04-17T12:08:12.739Z,12.60
2018-04-17T12:09:18.259Z,8.60
2018-04-17T12:10:23.778Z,8.10
2018-04-17T12:11:29.300Z,9.80
2018-04-17T12:12:34.831Z,8.90
2018-04-17T12:13:40.344Z,9.80
2018-04-17T12:14:45.870Z,9.80
2018-04-17T12:15:51.387Z,8.30
2018-04-17T12:16:56.917Z,6.90
2018-04-17T12:18:02.429Z,8.20
2018-04-17T12:19:07.944Z,7.70
2018-04-17T12:20:13.464Z,10.00
2018-04-17T12:21:18.988Z,8.20
2018-04-17T12:22:24.529Z,10.10
2018-04-17T12:23:30.029Z,8.50
2018-04-17T12:24:35.549Z,9.20
2018-04-17T12:25:41.068Z,8.20
2018-04-17T12:26:46.587Z,8.70
2018-04-17T12:27:52.109Z,9.20
2018-04-17T12:28:57.627Z,9.20
2018-04-17T12:30:03.147Z,10.20
2018-04-17T12:31:08.669Z,10.90
2018-04-17T12:32:14.189Z,8.00
2018-04-17T12:33:19.709Z,8.50
2018-04-17T12:34:25.271Z,11.20
2018-04-17T12:35:30.749Z,9.90
2018-04-17T12:36:36.283Z,8.80
2018-04-17T12:37:41.796Z,7.10
2018-04-17T12:38:47.313Z,9.20
2018-04-17T12:39:52.850Z,7.20
2018-04-17T12:40:58.358Z,13.90
2018-04-17T12:42:03.875Z,9.40
2018-04-17T12:43:09.400Z,9.00
2018-04-17T12:44:14.918Z,9.30
2018-04-17T12:45:20.438Z,9.20
2018-04-17T12:46:25.957Z,8.40
2018-04-17T12:47:31.480Z,8.00
2018-04-17T12:48:37.007Z,13.20
2018-04-17T12:49:42.527Z,8.10
2018-04-17T12:50:48.047Z,7.90
2018-04-17T12:51:53.613Z,8.70
2018-04-17T12:52:59.090Z,8.30
2018-04-17T12:54:04.612Z,8.50
2018-04-17T12:55:10.130Z,6.80
2018-04-17T12:56:15.650Z,10.30
2018-04-17T12:57:21.177Z,9.70
2018-04-17T12:58:26.692Z,8.20
2018-04-17T12:59:32.211Z,9.60
2018-04-17T13:00:37.731Z,9.30
2018-04-17T13:01:43.253Z,6.90
2018-04-17T13:02:48.777Z,7.10
2018-04-17T13:03:54.301Z,8.30
2018-04-17T13:04:59.817Z,10.30
2018-04-17T13:06:05.348Z,8.00
2018-04-17T13:07:10.873Z,8.80
2018-04-17T13:08:16.382Z,8.10
2018-04-17T13:09:21.904Z,8.30
2018-04-17T13:10:27.425Z,8.20
2018-04-17T13:11:32.949Z,6.50
2018-04-17T13:12:38.474Z,9.00
2018-04-17T13:13:43.992Z,8.80
2018-04-17T13:14:49.511Z,9.40
2018-04-17T13:15:55.032Z,7.10
2018-04-17T13:17:00.560Z,7.10
2018-04-17T13:18:06.077Z,9.60
2018-04-17T13:19:11.598Z,7.80
2018-04-17T13:20:17.126Z,7.70
2018-04-17T13:21:22.644Z,10.70
2018-04-17T13:22:28.163Z,8.90
2018-04-17T13:23:33.681Z,7.50
2018-04-17T13:24:39.207Z,7.90
2018-04-17T13:25:44.724Z,9.50
2018-04-17T13:26:50.245Z,7.40
2018-04-17T13:27:55.768Z,8.60
2018-04-17T13:29:01.288Z,11.50
2018-04-17T13:30:06.815Z,10.40
2018-04-17T13:31:12.341Z,8.20
2018-04-17T13:32:17.858Z,9.80
2018-04-17T13:33:23.378Z,16.80
2018-04-17T13:34:28.905Z,11.20
2018-04-17T13:35:34.423Z,5.90
2018-04-17T13:36:39.950Z,10.30
2018-04-17T13:37:45.464Z,11.20
2018-04-17T13:38:50.984Z,8.30
2018-04-17T13:39:56.519Z,7.30
2018-04-17T13:41:02.028Z,7.40
2018-04-17T13:42:07.563Z,9.30
2018-04-17T13:43:13.073Z,7.00
2018-04-17T13:44:18.608Z,7.20
2018-04-17T13:45:24.115Z,7.10
2018-04-17T13:46:29.643Z,7.30
2018-04-17T13:47:35.159Z,8.50
2018-04-17T13:48:40.675Z,8.30
2018-04-17T13:49:46.205Z,7.00
2018-04-17T13:50:51.727Z,10.20
2018-04-17T13:51:57.252Z,6.30
2018-04-17T13:53:02.763Z,8.90
2018-04-17T13:54:08.323Z,7.00
2018-04-17T13:55:13.815Z,7.00
2018-04-17T13:56:19.325Z,7.00
2018-04-17T13:57:24.849Z,9.30
2018-04-17T13:58:30.372Z,7.90
2018-04-17T13:59:35.893Z,6.30
2018-04-17T14:00:41.414Z,6.50
2018-04-17T14:01:46.935Z,6.60
2018-04-17T14:02:52.454Z,7.20
2018-04-17T14:03:57.986Z,6.30
2018-04-17T14:05:03.498Z,5.40
2018-04-17T14:06:09.023Z,8.00
2018-04-17T14:07:14.561Z,12.80
2018-04-17T14:08:20.070Z,7.10